createdAt,value
2022-11-29T00:02:57.921Z,68.50
2022-11-29T00:06:07.057Z,69.30
2022-11-29T00:09:12.476Z,64.90
2022-11-29T00:12:14.132Z,72.10
2022-11-29T00:15:15.798Z,71.10
2022-11-29T00:18:17.283Z,51.20
2022-11-29T00:21:18.774Z,70.20
2022-11-29T00:24:20.874Z,67.40
2022-11-29T00:27:22.438Z,65.40
2022-11-29T00:30:24.281Z,48.90
2022-11-29T00:33:26.569Z,65.80
2022-11-29T00:36:28.996Z,66.10
2022-11-29T00:39:30.618Z,61.90
2022-11-29T00:42:32.178Z,64.80
2022-11-29T00:45:33.808Z,71.70
2022-11-29T00:48:35.678Z,65.30
2022-11-29T00:51:37.255Z,63.40
2022-11-29T00:54:38.811Z,65.30
2022-11-29T00:57:40.380Z,69.40
2022-11-29T01:00:42.292Z,51.30
2022-11-29T01:03:44.036Z,69.70
2022-11-29T01:06:45.620Z,70.90
2022-11-29T01:09:47.205Z,55.20
2022-11-29T01:12:49.042Z,68.20
2022-11-29T01:15:56.087Z,67.60
2022-11-29T01:18:57.644Z,71.40
2022-11-29T01:21:59.295Z,65.70
2022-11-29T01:25:01.447Z,61.50
2022-11-29T01:31:06.961Z,60.50
2022-11-29T01:34:10.400Z,61.10
2022-11-29T01:37:11.948Z,59.30
2022-11-29T01:40:13.566Z,45.50
2022-11-29T01:43:16.606Z,55.60
2022-11-29T01:46:18.298Z,57.80
2022-11-29T01:49:31.002Z,54.90
2022-11-29T01:52:32.711Z,55.40
2022-11-29T01:55:38.359Z,56.10
2022-11-29T01:58:42.186Z,55.80
2022-11-29T02:01:44.317Z,57.40
2022-11-29T02:04:47.755Z,54.20
2022-11-29T02:07:52.257Z,52.70
2022-11-29T02:11:01.544Z,51.60
2022-11-29T02:14:32.326Z,54.20
2022-11-29T02:17:51.710Z,49.40
2022-11-29T02:21:15.775Z,53.80
2022-11-29T02:25:02.175Z,56.30
2022-11-29T02:28:41.070Z,51.40
2022-11-29T02:32:20.362Z,54.60
2022-11-29T02:35:24.724Z,51.40
2022-11-29T02:38:44.240Z,57.80
2022-11-29T02:41:59.800Z,58.70
2022-11-29T02:45:01.335Z,58.50
2022-11-29T02:48:20.295Z,54.90
2022-11-29T02:51:26.739Z,55.20
2022-11-29T02:54:49.860Z,53.50
2022-11-29T02:58:08.977Z,52.60
2022-11-29T03:01:20.727Z,54.70
2022-11-29T03:04:37.295Z,53.90
2022-11-29T03:07:48.712Z,53.20
2022-11-29T03:11:08.807Z,53.10
2022-11-29T03:14:23.544Z,45.90
2022-11-29T03:18:00.668Z,49.60
2022-11-29T03:21:26.528Z,50.40
2022-11-29T03:24:39.321Z,45.70
2022-11-29T03:27:46.923Z,45.90
2022-11-29T03:31:06.471Z,51.30
2022-11-29T03:34:08.054Z,53.50
2022-11-29T03:37:16.910Z,48.80
2022-11-29T03:40:23.729Z,49.90
2022-11-29T03:44:05.835Z,51.80
2022-11-29T03:47:11.941Z,52.80
2022-11-29T03:50:18.403Z,49.00
2022-11-29T03:53:25.401Z,53.00
2022-11-29T03:56:35.512Z,50.70
2022-11-29T03:59:54.212Z,52.40
2022-11-29T04:03:25.607Z,52.50
2022-11-29T04:06:52.263Z,54.00
2022-11-29T04:10:31.210Z,53.90
2022-11-29T04:13:54.353Z,48.40
2022-11-29T04:17:24.444Z,58.20
2022-11-29T04:21:03.251Z,49.70
2022-11-29T04:24:33.884Z,53.20
2022-11-29T04:28:01.516Z,56.60
2022-11-29T04:31:21.294Z,63.90
2022-11-29T04:34:36.934Z,57.60
2022-11-29T04:37:44.406Z,58.70
2022-11-29T04:41:07.711Z,61.50
2022-11-29T04:44:24.645Z,59.60
2022-11-29T04:48:12.173Z,56.30
2022-11-29T04:51:41.572Z,61.80
2022-11-29T04:54:59.459Z,62.80
2022-11-29T04:58:14.272Z,66.20
2022-11-29T05:01:47.806Z,58.20
2022-11-29T05:05:00.233Z,64.00
2022-11-29T05:11:40.091Z,59.90
2022-11-29T05:15:18.592Z,66.10
2022-11-29T05:18:43.542Z,69.00
2022-11-29T05:22:13.507Z,63.40
2022-11-29T05:25:30.903Z,68.20
2022-11-29T05:28:54.100Z,70.00
2022-11-29T05:32:20.456Z,72.80
2022-11-29T05:35:45.294Z,69.10
2022-11-29T05:39:02.393Z,69.90
2022-11-29T05:42:22.680Z,63.10
2022-11-29T05:45:31.358Z,63.00
2022-11-29T05:48:51.542Z,64.00
2022-11-29T05:52:16.669Z,68.40
2022-11-29T05:55:42.351Z,59.00
2022-11-29T05:59:01.802Z,63.60
2022-11-29T06:02:28.750Z,63.80
2022-11-29T06:05:46.078Z,60.60
2022-11-29T06:09:03.386Z,65.10
2022-11-29T06:12:20.636Z,62.40
2022-11-29T06:15:42.321Z,67.60
2022-11-29T06:19:11.301Z,63.80
2022-11-29T06:22:30.970Z,59.00
2022-11-29T06:25:46.666Z,63.90
2022-11-29T06:29:09.938Z,60.60
2022-11-29T06:32:29.906Z,57.50
2022-11-29T06:35:34.865Z,62.20
2022-11-29T06:38:36.733Z,63.70
2022-11-29T06:41:38.587Z,58.90
2022-11-29T06:44:40.429Z,59.00
2022-11-29T06:47:49.652Z,63.40
2022-11-29T06:50:59.683Z,60.80
2022-11-29T06:54:24.690Z,59.90
2022-11-29T06:57:48.118Z,62.90
2022-11-29T07:01:02.354Z,62.20
2022-11-29T07:04:30.234Z,64.90
2022-11-29T07:07:33.764Z,65.70
2022-11-29T07:10:38.094Z,63.20
2022-11-29T07:13:41.041Z,63.40
2022-11-29T07:17:03.004Z,67.70
2022-11-29T07:20:22.496Z,71.00
2022-11-29T07:23:32.076Z,70.80
2022-11-29T07:26:47.724Z,66.40
2022-11-29T07:30:10.347Z,67.70
2022-11-29T07:33:20.709Z,70.40
2022-11-29T07:36:39.812Z,68.30
2022-11-29T07:39:51.033Z,70.30
2022-11-29T07:43:14.121Z,69.50
2022-11-29T07:46:15.725Z,74.50
2022-11-29T07:49:17.291Z,63.70
2022-11-29T07:52:18.963Z,85.60
2022-11-29T07:55:22.758Z,83.30
2022-11-29T07:58:24.529Z,78.70
2022-11-29T08:01:26.283Z,76.90
2022-11-29T08:04:27.917Z,74.90
2022-11-29T08:07:29.818Z,57.70
2022-11-29T08:10:31.703Z,72.30
2022-11-29T08:13:33.402Z,84.70
2022-11-29T08:16:35.162Z,61.20
2022-11-29T08:19:36.794Z,61.40
2022-11-29T08:22:38.724Z,76.90
2022-11-29T08:25:41.026Z,58.80
2022-11-29T08:28:45.057Z,64.40
2022-11-29T08:31:53.785Z,67.20
2022-11-29T08:34:57.989Z,72.60
2022-11-29T08:37:59.740Z,74.10
2022-11-29T08:41:06.260Z,69.30
2022-11-29T08:44:08.389Z,67.40
2022-11-29T08:47:29.327Z,69.40
2022-11-29T08:50:30.963Z,66.40
2022-11-29T08:53:41.308Z,77.30
2022-11-29T08:57:37.547Z,77.20
2022-11-29T09:00:05.800Z,69.30
2022-11-29T09:03:26.760Z,67.80
2022-11-29T09:06:31.433Z,62.30
2022-11-29T09:09:32.987Z,62.80
2022-11-29T09:12:36.442Z,46.80
2022-11-29T09:15:44.249Z,71.90
2022-11-29T09:18:55.264Z,67.70
2022-11-29T09:21:56.919Z,69.10
2022-11-29T09:24:58.504Z,71.20
2022-11-29T09:28:03.016Z,71.30
2022-11-29T09:31:10.360Z,64.30
2022-11-29T09:34:13.307Z,64.30
2022-11-29T09:37:14.989Z,58.90
2022-11-29T09:40:20.719Z,60.10
2022-11-29T09:43:22.517Z,62.60
2022-11-29T09:46:39.048Z,52.20
2022-11-29T09:49:41.035Z,51.50
2022-11-29T09:53:20.278Z,51.10
2022-11-29T09:56:31.200Z,60.60
2022-11-29T09:59:44.859Z,62.20
2022-11-29T10:02:52.208Z,56.40
2022-11-29T10:06:00.440Z,54.90
2022-11-29T10:09:12.826Z,60.50
2022-11-29T10:15:27.848Z,57.70
2022-11-29T10:18:35.893Z,58.80
2022-11-29T10:21:43.053Z,60.60
2022-11-29T10:24:49.024Z,52.70
2022-11-29T10:27:53.159Z,56.80
2022-11-29T10:30:57.837Z,55.20
2022-11-29T10:34:02.083Z,54.60
2022-11-29T10:37:03.976Z,54.10
2022-11-29T10:40:13.650Z,53.50
2022-11-29T10:43:15.425Z,61.50
2022-11-29T10:46:23.940Z,57.60
2022-11-29T10:49:27.792Z,60.00
2022-11-29T10:52:29.661Z,62.00
2022-11-29T10:55:38.567Z,55.50
2022-11-29T10:58:57.153Z,57.20
2022-11-29T11:02:01.027Z,57.50
2022-11-29T11:05:11.092Z,57.00
2022-11-29T11:08:17.694Z,57.90
2022-11-29T11:11:32.095Z,59.40
2022-11-29T11:14:37.163Z,61.20
2022-11-29T11:17:41.563Z,61.60
2022-11-29T11:20:51.120Z,54.40
2022-11-29T11:23:56.944Z,56.20
2022-11-29T11:27:00.507Z,51.60
2022-11-29T11:30:05.211Z,57.40
2022-11-29T11:33:15.831Z,56.90
2022-11-29T11:36:25.775Z,62.00
2022-11-29T11:39:31.731Z,55.90
2022-11-29T11:42:40.369Z,51.30
2022-11-29T11:45:51.505Z,40.90
2022-11-29T11:48:53.484Z,44.60
2022-11-29T11:51:57.733Z,38.80
2022-11-29T11:55:03.903Z,39.30
2022-11-29T11:58:11.658Z,36.90
2022-11-29T12:01:24.531Z,42.50
2022-11-29T12:04:35.287Z,35.90
2022-11-29T12:08:07.479Z,39.10
2022-11-29T12:11:12.468Z,37.30
2022-11-29T12:14:23.388Z,38.40
2022-11-29T12:17:49.296Z,37.60
2022-11-29T12:20:59.775Z,43.30
2022-11-29T12:24:35.719Z,40.60
2022-11-29T12:27:37.449Z,42.00
2022-11-29T12:30:48.080Z,43.30
2022-11-29T12:34:07.068Z,45.50
2022-11-29T12:37:31.833Z,44.60
2022-11-29T12:40:57.999Z,49.30
2022-11-29T12:44:04.408Z,49.40
2022-11-29T12:47:35.749Z,50.20
2022-11-29T12:50:49.785Z,52.70
2022-11-29T12:54:12.988Z,52.00
2022-11-29T12:57:27.983Z,59.10
2022-11-29T13:00:41.564Z,58.60
2022-11-29T13:03:59.633Z,65.80
2022-11-29T13:07:23.028Z,63.40
2022-11-29T13:10:52.907Z,60.70
2022-11-29T13:18:05.191Z,64.60
2022-11-29T13:21:23.686Z,59.40
2022-11-29T13:24:37.112Z,62.80
2022-11-29T13:27:48.577Z,66.80
2022-11-29T13:30:51.941Z,63.40
2022-11-29T13:34:08.238Z,66.30
2022-11-29T13:37:31.981Z,69.30
2022-11-29T13:40:56.951Z,70.50
2022-11-29T13:44:06.992Z,66.60
2022-11-29T13:47:11.842Z,65.90
2022-11-29T13:50:38.259Z,67.10
2022-11-29T13:53:48.435Z,68.00
2022-11-29T13:57:01.938Z,68.50
2022-11-29T14:00:04.338Z,67.40
2022-11-29T14:06:38.197Z,63.00
2022-11-29T14:10:00.822Z,67.30
2022-11-29T14:13:04.306Z,67.10
2022-11-29T14:16:14.732Z,69.60
2022-11-29T14:19:34.497Z,69.90
2022-11-29T14:23:05.068Z,73.30
2022-11-29T14:26:06.716Z,77.20
2022-11-29T14:29:54.481Z,69.40
2022-11-29T14:33:08.376Z,73.70
2022-11-29T14:36:37.781Z,62.90
2022-11-29T14:39:51.316Z,60.90
2022-11-29T14:42:53.559Z,66.00
2022-11-29T14:46:13.529Z,68.40
2022-11-29T14:49:25.926Z,56.10
2022-11-29T14:55:34.937Z,63.70
2022-11-29T14:58:36.626Z,62.10
2022-11-29T15:01:44.239Z,48.50
2022-11-29T15:04:51.049Z,58.40
2022-11-29T15:08:13.472Z,60.00
2022-11-29T15:11:30.285Z,63.80
2022-11-29T15:14:37.949Z,62.80
2022-11-29T15:17:45.467Z,55.50
2022-11-29T15:21:03.516Z,54.60
2022-11-29T15:24:15.179Z,53.10
2022-11-29T15:27:17.654Z,51.10
2022-11-29T15:30:32.331Z,50.60
2022-11-29T15:33:36.631Z,53.10
2022-11-29T15:36:42.593Z,55.80
2022-11-29T15:39:44.178Z,53.50
2022-11-29T15:42:52.817Z,37.10
2022-11-29T15:45:56.732Z,48.20
2022-11-29T15:49:21.062Z,50.80
2022-11-29T15:52:30.994Z,50.20
2022-11-29T15:55:33.234Z,51.80
2022-11-29T16:01:39.313Z,43.40
2022-11-29T16:04:47.152Z,46.40
2022-11-29T16:07:56.408Z,43.60
2022-11-29T16:10:59.812Z,46.70
2022-11-29T16:14:32.944Z,48.20
2022-11-29T16:17:35.037Z,46.30
2022-11-29T16:20:36.773Z,49.70
2022-11-29T16:23:43.637Z,48.00
2022-11-29T16:26:47.441Z,48.30
2022-11-29T16:29:51.572Z,46.90
2022-11-29T16:33:02.986Z,50.60
2022-11-29T16:36:13.881Z,58.90
2022-11-29T16:39:22.958Z,56.40
2022-11-29T16:42:27.473Z,59.10
2022-11-29T16:45:41.847Z,56.00
2022-11-29T16:48:43.859Z,62.40
2022-11-29T16:51:47.848Z,46.40
2022-11-29T16:54:49.928Z,58.20
2022-11-29T16:57:51.676Z,61.00
2022-11-29T17:00:53.545Z,43.60
2022-11-29T17:03:57.287Z,55.80
2022-11-29T17:06:59.079Z,57.90
2022-11-29T17:10:01.535Z,64.10
2022-11-29T17:13:03.900Z,62.70
2022-11-29T17:19:12.810Z,59.90
2022-11-29T17:22:14.341Z,69.70
2022-11-29T17:25:16.073Z,85.40
2022-11-29T17:28:17.661Z,86.90
2022-11-29T17:31:22.187Z,92.30
2022-11-29T17:34:24.204Z,93.70
2022-11-29T17:37:28.077Z,96.10
2022-11-29T17:40:29.758Z,92.10
2022-11-29T17:43:33.272Z,69.10
2022-11-29T17:46:36.106Z,87.80
2022-11-29T17:49:37.851Z,88.50
2022-11-29T17:52:40.307Z,89.10
2022-11-29T17:58:43.957Z,64.80
2022-11-29T18:01:48.490Z,83.80
2022-11-29T18:04:50.482Z,83.00
2022-11-29T18:07:58.639Z,79.30
2022-11-29T18:11:18.078Z,82.00
2022-11-29T18:14:22.892Z,84.80
2022-11-29T18:17:24.534Z,79.50
2022-11-29T18:20:26.137Z,80.50
2022-11-29T18:23:28.804Z,80.60
2022-11-29T18:26:33.007Z,77.80
2022-11-29T18:29:39.126Z,75.30
2022-11-29T18:32:41.465Z,72.50
2022-11-29T18:35:43.007Z,72.20
2022-11-29T18:38:45.927Z,53.80
2022-11-29T18:41:49.275Z,77.00
2022-11-29T18:44:51.759Z,79.00
2022-11-29T18:47:57.919Z,77.90
2022-11-29T18:51:07.915Z,71.50
2022-11-29T18:54:10.439Z,74.30
2022-11-29T18:57:12.112Z,76.50
2022-11-29T19:00:14.397Z,74.50
2022-11-29T19:06:22.290Z,71.70
2022-11-29T19:09:24.110Z,73.80
2022-11-29T19:12:25.681Z,66.20
2022-11-29T19:15:27.199Z,73.90
2022-11-29T19:18:29.070Z,68.00
2022-11-29T19:21:31.986Z,70.50
2022-11-29T19:24:33.583Z,64.20
2022-11-29T19:27:35.104Z,70.30
2022-11-29T19:30:36.851Z,76.40
2022-11-29T19:33:40.003Z,75.20
2022-11-29T19:36:42.502Z,75.90
2022-11-29T19:39:44.892Z,75.30
2022-11-29T19:42:48.339Z,68.80
2022-11-29T19:45:49.868Z,77.60
2022-11-29T19:48:56.002Z,79.90
2022-11-29T19:51:57.562Z,74.70
2022-11-29T19:54:59.131Z,83.30
2022-11-29T19:58:00.730Z,78.40
2022-11-29T20:01:11.833Z,78.00
2022-11-29T20:04:15.770Z,81.10
2022-11-29T20:07:17.412Z,77.70
2022-11-29T20:10:19.812Z,81.90
2022-11-29T20:13:21.848Z,84.50
2022-11-29T20:16:24.754Z,80.70
2022-11-29T20:19:26.353Z,82.60
2022-11-29T20:22:28.005Z,83.20
2022-11-29T20:25:29.602Z,83.90
2022-11-29T20:28:31.201Z,82.00
2022-11-29T20:31:34.690Z,80.30
2022-11-29T20:34:37.885Z,80.50
2022-11-29T20:37:57.458Z,82.30
2022-11-29T20:41:10.312Z,73.10
2022-11-29T20:44:19.724Z,72.20
2022-11-29T20:47:24.272Z,74.10
2022-11-29T20:50:28.385Z,71.10
2022-11-29T20:53:39.495Z,73.30
2022-11-29T20:56:41.058Z,72.00
2022-11-29T20:59:42.717Z,74.00
2022-11-29T21:02:44.568Z,73.70
2022-11-29T21:05:47.143Z,80.80
2022-11-29T21:08:49.123Z,81.60
2022-11-29T21:11:50.988Z,77.40
2022-11-29T21:14:52.864Z,72.00
2022-11-29T21:17:54.934Z,73.00
2022-11-29T21:21:08.752Z,73.80
2022-11-29T21:24:30.637Z,71.60
2022-11-29T21:27:33.821Z,69.20
2022-11-29T21:30:36.040Z,72.70
2022-11-29T21:36:40.427Z,49.90
2022-11-29T21:39:42.014Z,67.20
2022-11-29T21:42:43.672Z,69.90
2022-11-29T21:45:47.972Z,72.60
2022-11-29T21:48:51.261Z,70.60
2022-11-29T21:51:56.830Z,73.20
2022-11-29T21:54:58.348Z,67.30
2022-11-29T21:57:59.999Z,69.20
2022-11-29T22:01:18.943Z,64.20
2022-11-29T22:04:33.570Z,63.20
2022-11-29T22:07:35.259Z,58.80
2022-11-29T22:10:36.822Z,48.00
2022-11-29T22:14:00.358Z,67.10
2022-11-29T22:17:02.035Z,71.10
2022-11-29T22:20:04.045Z,69.70
2022-11-29T22:23:05.666Z,64.30
2022-11-29T22:26:07.733Z,60.80
2022-11-29T22:29:10.724Z,60.20
2022-11-29T22:32:12.247Z,59.50
2022-11-29T22:35:13.913Z,64.10
2022-11-29T22:38:15.480Z,61.60
2022-11-29T22:41:17.883Z,63.20
2022-11-29T22:44:19.606Z,57.60
2022-11-29T22:47:21.176Z,57.00
2022-11-29T22:50:24.018Z,60.80
2022-11-29T22:53:25.905Z,64.20
2022-11-29T22:56:32.347Z,65.20
2022-11-29T22:59:33.892Z,67.40
2022-11-29T23:02:35.546Z,61.30
2022-11-29T23:05:37.206Z,63.20
2022-11-29T23:08:40.097Z,67.10
2022-11-29T23:11:43.351Z,59.60
2022-11-29T23:14:45.278Z,59.30
2022-11-29T23:17:47.037Z,62.10
2022-11-29T23:20:48.631Z,59.30
2022-11-29T23:23:56.118Z,57.90
2022-11-29T23:26:58.223Z,67.20
2022-11-29T23:29:59.728Z,60.90
2022-11-29T23:33:01.271Z,58.80
2022-11-29T23:36:05.664Z,51.60
2022-11-29T23:39:07.442Z,57.00
2022-11-29T23:42:09.005Z,58.10
2022-11-29T23:45:10.536Z,57.10
2022-11-29T23:48:12.124Z,54.80
2022-11-29T23:51:14.446Z,56.80
2022-11-29T23:57:17.453Z,54.10
